sensor_id;sensor_type;location;lat;lon;timestamp;pressure;altitude;pressure_sealevel;temperature;humidity
49102;BME280;34913;47.520;19.186;2023-01-29T00:02:01;100595.31;;;1.45;90.17
49102;BME280;34913;47.520;19.186;2023-01-29T00:04:28;100601.19;;;1.52;90.09
49102;BME280;34913;47.520;19.186;2023-01-29T00:06:54;100599.56;;;1.48;90.18
49102;BME280;34913;47.520;19.186;2023-01-29T00:09:19;100597.72;;;1.51;90.28
49102;BME280;34913;47.520;19.186;2023-01-29T00:11:45;100602.78;;;1.56;90.02
49102;BME280;34913;47.520;19.186;2023-01-29T00:14:11;100599.25;;;1.57;90.01
49102;BME280;34913;47.520;19.186;2023-01-29T00:16:36;100607.63;;;1.66;89.73
49102;BME280;34913;47.520;19.186;2023-01-29T00:19:02;100610.28;;;1.65;89.31
49102;BME280;34913;47.520;19.186;2023-01-29T00:21:28;100607.66;;;1.65;89.19
49102;BME280;34913;47.520;19.186;2023-01-29T00:23:57;100611.03;;;1.68;89.18
49102;BME280;34913;47.520;19.186;2023-01-29T00:26:23;100608.44;;;1.68;89.06
49102;BME280;34913;47.520;19.186;2023-01-29T00:28:48;100608.59;;;1.64;89.23
49102;BME280;34913;47.520;19.186;2023-01-29T00:31:16;100614.66;;;1.64;89.55
49102;BME280;34913;47.520;19.186;2023-01-29T00:33:42;100615.44;;;1.68;89.29
49102;BME280;34913;47.520;19.186;2023-01-29T00:36:12;100614.03;;;1.83;88.48
49102;BME280;34913;47.520;19.186;2023-01-29T00:38:38;100622.31;;;1.94;87.43
49102;BME280;34913;47.520;19.186;2023-01-29T00:41:05;100621.31;;;1.98;86.59
49102;BME280;34913;47.520;19.186;2023-01-29T00:43:49;100626.63;;;1.95;86.45
49102;BME280;34913;47.520;19.186;2023-01-29T00:46:33;100625.34;;;1.83;86.64
49102;BME280;34913;47.520;19.186;2023-01-29T00:48:59;100621.66;;;1.64;86.61
49102;BME280;34913;47.520;19.186;2023-01-29T00:51:24;100627.44;;;1.49;86.80
49102;BME280;34913;47.520;19.186;2023-01-29T00:53:50;100636.41;;;1.42;87.40
49102;BME280;34913;47.520;19.186;2023-01-29T00:56:15;100625.59;;;1.27;87.34
49102;BME280;34913;47.520;19.186;2023-01-29T00:58:41;100625.84;;;1.20;87.61
49102;BME280;34913;47.520;19.186;2023-01-29T01:01:06;100628.41;;;1.21;87.80
49102;BME280;34913;47.520;19.186;2023-01-29T01:03:32;100636.88;;;1.03;87.45
49102;BME280;34913;47.520;19.186;2023-01-29T01:06:06;100625.19;;;0.87;88.13
49102;BME280;34913;47.520;19.186;2023-01-29T01:08:32;100622.03;;;0.77;88.26
49102;BME280;34913;47.520;19.186;2023-01-29T01:11:16;100633.13;;;0.57;88.99
49102;BME280;34913;47.520;19.186;2023-01-29T01:13:42;100623.91;;;0.45;89.80
49102;BME280;34913;47.520;19.186;2023-01-29T01:16:17;100632.53;;;0.47;90.00
49102;BME280;34913;47.520;19.186;2023-01-29T01:18:43;100629.97;;;0.46;90.14
49102;BME280;34913;47.520;19.186;2023-01-29T01:21:09;100634.03;;;0.56;90.15
49102;BME280;34913;47.520;19.186;2023-01-29T01:23:35;100633.94;;;0.59;89.76
49102;BME280;34913;47.520;19.186;2023-01-29T01:26:00;100633.13;;;0.57;89.55
49102;BME280;34913;47.520;19.186;2023-01-29T01:28:27;100632.13;;;0.61;89.17
49102;BME280;34913;47.520;19.186;2023-01-29T01:30:52;100641.03;;;0.54;89.01
49102;BME280;34913;47.520;19.186;2023-01-29T01:33:18;100647.22;;;0.51;89.66
49102;BME280;34913;47.520;19.186;2023-01-29T01:35:43;100648.19;;;0.49;89.46
49102;BME280;34913;47.520;19.186;2023-01-29T01:38:08;100642.97;;;0.49;89.50
49102;BME280;34913;47.520;19.186;2023-01-29T01:40:34;100648.47;;;0.40;88.83
49102;BME280;34913;47.520;19.186;2023-01-29T01:43:00;100646.03;;;0.34;89.76
49102;BME280;34913;47.520;19.186;2023-01-29T01:45:34;100650.41;;;0.33;90.24
49102;BME280;34913;47.520;19.186;2023-01-29T01:51:02;100651.50;;;0.26;89.34
49102;BME280;34913;47.520;19.186;2023-01-29T01:53:38;100657.78;;;0.19;90.07
49102;BME280;34913;47.520;19.186;2023-01-29T01:56:10;100655.25;;;0.16;90.18
49102;BME280;34913;47.520;19.186;2023-01-29T01:58:40;100646.22;;;-0.02;90.22
49102;BME280;34913;47.520;19.186;2023-01-29T02:01:08;100650.94;;;-0.15;91.22
49102;BME280;34913;47.520;19.186;2023-01-29T02:03:42;100645.78;;;-0.18;92.22
49102;BME280;34913;47.520;19.186;2023-01-29T02:06:28;100647.72;;;-0.24;91.90
49102;BME280;34913;47.520;19.186;2023-01-29T02:09:17;100649.22;;;-0.16;92.92
49102;BME280;34913;47.520;19.186;2023-01-29T02:12:02;100643.13;;;-0.16;92.40
49102;BME280;34913;47.520;19.186;2023-01-29T02:14:27;100654.53;;;-0.19;91.90
49102;BME280;34913;47.520;19.186;2023-01-29T02:16:53;100651.84;;;-0.16;92.62
49102;BME280;34913;47.520;19.186;2023-01-29T02:19:31;100658.66;;;-0.12;92.51
49102;BME280;34913;47.520;19.186;2023-01-29T02:32:52;100671.50;;;-0.04;91.24
49102;BME280;34913;47.520;19.186;2023-01-29T02:38:08;100672.72;;;-0.16;90.70
49102;BME280;34913;47.520;19.186;2023-01-29T02:43:26;100673.13;;;-0.31;91.95
49102;BME280;34913;47.520;19.186;2023-01-29T02:46:10;100679.84;;;-0.22;92.26
49102;BME280;34913;47.520;19.186;2023-01-29T02:51:46;100690.97;;;-0.16;92.70
49102;BME280;34913;47.520;19.186;2023-01-29T02:54:31;100687.38;;;-0.12;92.64
49102;BME280;34913;47.520;19.186;2023-01-29T02:57:06;100692.59;;;-0.12;92.78
49102;BME280;34913;47.520;19.186;2023-01-29T02:59:39;100690.84;;;-0.11;93.13
49102;BME280;34913;47.520;19.186;2023-01-29T03:02:11;100691.69;;;-0.11;92.75
49102;BME280;34913;47.520;19.186;2023-01-29T03:04:49;100689.78;;;-0.04;92.86
49102;BME280;34913;47.520;19.186;2023-01-29T03:07:33;100692.31;;;-0.03;92.32
49102;BME280;34913;47.520;19.186;2023-01-29T03:10:38;100703.72;;;-0.05;92.27
49102;BME280;34913;47.520;19.186;2023-01-29T03:13:14;100689.13;;;-0.12;92.15
49102;BME280;34913;47.520;19.186;2023-01-29T03:15:47;100694.47;;;-0.17;91.57
49102;BME280;34913;47.520;19.186;2023-01-29T03:18:22;100694.59;;;-0.21;91.70
49102;BME280;34913;47.520;19.186;2023-01-29T03:20:57;100699.88;;;-0.23;92.17
49102;BME280;34913;47.520;19.186;2023-01-29T03:23:27;100703.00;;;-0.43;91.61
49102;BME280;34913;47.520;19.186;2023-01-29T03:26:14;100702.44;;;-0.54;93.34
49102;BME280;34913;47.520;19.186;2023-01-29T03:29:00;100705.69;;;-0.46;93.97
49102;BME280;34913;47.520;19.186;2023-01-29T03:31:47;100707.19;;;-0.37;94.57
49102;BME280;34913;47.520;19.186;2023-01-29T03:34:28;100711.41;;;-0.33;94.02
49102;BME280;34913;47.520;19.186;2023-01-29T03:37:02;100712.06;;;-0.23;94.52
49102;BME280;34913;47.520;19.186;2023-01-29T03:39:31;100715.25;;;-0.14;94.55
49102;BME280;34913;47.520;19.186;2023-01-29T03:42:03;100712.50;;;-0.08;94.01
49102;BME280;34913;47.520;19.186;2023-01-29T03:44:34;100715.75;;;0.01;93.87
49102;BME280;34913;47.520;19.186;2023-01-29T03:55:14;100711.16;;;0.09;93.98
49102;BME280;34913;47.520;19.186;2023-01-29T03:57:48;100715.81;;;-0.03;93.71
49102;BME280;34913;47.520;19.186;2023-01-29T04:00:39;100719.69;;;-0.17;94.18
49102;BME280;34913;47.520;19.186;2023-01-29T04:03:22;100706.03;;;-0.27;95.35
49102;BME280;34913;47.520;19.186;2023-01-29T04:06:15;100700.47;;;-0.13;95.78
49102;BME280;34913;47.520;19.186;2023-01-29T04:08:51;100714.38;;;-0.13;95.31
49102;BME280;34913;47.520;19.186;2023-01-29T04:11:21;100709.34;;;-0.20;95.36
49102;BME280;34913;47.520;19.186;2023-01-29T04:13:47;100708.41;;;-0.18;96.06
49102;BME280;34913;47.520;19.186;2023-01-29T04:16:17;100708.94;;;-0.05;96.25
49102;BME280;34913;47.520;19.186;2023-01-29T04:18:49;100709.56;;;0.03;95.94
49102;BME280;34913;47.520;19.186;2023-01-29T04:21:15;100700.59;;;0.13;95.23
49102;BME280;34913;47.520;19.186;2023-01-29T04:23:41;100708.28;;;0.18;94.81
49102;BME280;34913;47.520;19.186;2023-01-29T04:31:32;100704.69;;;0.22;93.61
49102;BME280;34913;47.520;19.186;2023-01-29T04:34:12;100706.81;;;0.09;94.21
49102;BME280;34913;47.520;19.186;2023-01-29T04:41:56;100711.16;;;0.09;94.75
49102;BME280;34913;47.520;19.186;2023-01-29T04:44:57;100714.91;;;-0.02;95.00
49102;BME280;34913;47.520;19.186;2023-01-29T04:47:56;100720.88;;;0.04;95.50
49102;BME280;34913;47.520;19.186;2023-01-29T05:00:41;100717.97;;;0.44;93.59
49102;BME280;34913;47.520;19.186;2023-01-29T05:03:09;100718.69;;;0.49;93.35
49102;BME280;34913;47.520;19.186;2023-01-29T05:05:38;100715.13;;;0.51;92.47
49102;BME280;34913;47.520;19.186;2023-01-29T05:08:06;100717.75;;;0.51;92.33
49102;BME280;34913;47.520;19.186;2023-01-29T05:10:33;100716.16;;;0.46;92.19
49102;BME280;34913;47.520;19.186;2023-01-29T05:13:00;100717.91;;;0.45;92.18
49102;BME280;34913;47.520;19.186;2023-01-29T05:15:45;100713.75;;;0.40;92.64
49102;BME280;34913;47.520;19.186;2023-01-29T05:18:12;100711.16;;;0.38;92.90
49102;BME280;34913;47.520;19.186;2023-01-29T05:20:40;100717.34;;;0.36;92.96
49102;BME280;34913;47.520;19.186;2023-01-29T05:23:17;100718.25;;;0.35;93.16
49102;BME280;34913;47.520;19.186;2023-01-29T05:25:43;100708.66;;;0.35;92.59
49102;BME280;34913;47.520;19.186;2023-01-29T05:28:09;100706.00;;;0.37;92.33
49102;BME280;34913;47.520;19.186;2023-01-29T05:30:47;100706.91;;;0.36;92.28
49102;BME280;34913;47.520;19.186;2023-01-29T05:33:18;100710.34;;;0.36;92.46
49102;BME280;34913;47.520;19.186;2023-01-29T05:35:45;100709.56;;;0.34;92.99
49102;BME280;34913;47.520;19.186;2023-01-29T05:38:10;100702.47;;;0.38;92.79
49102;BME280;34913;47.520;19.186;2023-01-29T05:40:37;100707.56;;;0.42;91.99
49102;BME280;34913;47.520;19.186;2023-01-29T05:43:03;100707.41;;;0.47;91.59
49102;BME280;34913;47.520;19.186;2023-01-29T05:45:29;100712.03;;;0.39;92.31
49102;BME280;34913;47.520;19.186;2023-01-29T05:47:58;100702.47;;;0.38;92.47
49102;BME280;34913;47.520;19.186;2023-01-29T05:50:25;100704.13;;;0.42;92.54
49102;BME280;34913;47.520;19.186;2023-01-29T05:52:58;100709.50;;;0.36;92.48
49102;BME280;34913;47.520;19.186;2023-01-29T05:55:24;100712.25;;;0.31;93.30
49102;BME280;34913;47.520;19.186;2023-01-29T05:57:49;100714.09;;;0.27;93.44
49102;BME280;34913;47.520;19.186;2023-01-29T06:00:15;100708.78;;;0.31;93.63
49102;BME280;34913;47.520;19.186;2023-01-29T06:02:40;100713.06;;;0.33;93.66
49102;BME280;34913;47.520;19.186;2023-01-29T06:05:06;100720.06;;;0.33;93.14
49102;BME280;34913;47.520;19.186;2023-01-29T06:07:32;100726.25;;;0.28;93.35
49102;BME280;34913;47.520;19.186;2023-01-29T06:09:58;100721.66;;;0.37;93.39
49102;BME280;34913;47.520;19.186;2023-01-29T06:12:23;100718.78;;;0.46;92.43
49102;BME280;34913;47.520;19.186;2023-01-29T06:14:49;100728.03;;;0.58;91.86
49102;BME280;34913;47.520;19.186;2023-01-29T06:17:14;100728.06;;;0.56;91.71
49102;BME280;34913;47.520;19.186;2023-01-29T06:19:40;100735.81;;;0.59;91.41
49102;BME280;34913;47.520;19.186;2023-01-29T06:22:05;100736.72;;;0.58;91.13
49102;BME280;34913;47.520;19.186;2023-01-29T06:24:31;100744.53;;;0.58;89.94
49102;BME280;34913;47.520;19.186;2023-01-29T06:26:57;100751.59;;;0.54;89.49
49102;BME280;34913;47.520;19.186;2023-01-29T06:29:22;100751.38;;;0.62;89.55
49102;BME280;34913;47.520;19.186;2023-01-29T06:31:48;100760.00;;;0.66;89.07
49102;BME280;34913;47.520;19.186;2023-01-29T06:34:13;100766.25;;;0.60;88.04
49102;BME280;34913;47.520;19.186;2023-01-29T06:36:39;100769.75;;;0.59;87.33
49102;BME280;34913;47.520;19.186;2023-01-29T06:39:06;100772.03;;;0.71;86.53
49102;BME280;34913;47.520;19.186;2023-01-29T06:41:31;100774.63;;;0.71;86.60
49102;BME280;34913;47.520;19.186;2023-01-29T06:43:56;100779.53;;;0.82;85.50
49102;BME280;34913;47.520;19.186;2023-01-29T06:46:22;100776.97;;;0.80;85.81
49102;BME280;34913;47.520;19.186;2023-01-29T06:48:47;100780.34;;;0.84;85.06
49102;BME280;34913;47.520;19.186;2023-01-29T06:51:13;100780.38;;;0.82;85.34
49102;BME280;34913;47.520;19.186;2023-01-29T06:53:39;100786.34;;;0.88;85.26
49102;BME280;34913;47.520;19.186;2023-01-29T06:56:06;100788.13;;;0.86;85.17
49102;BME280;34913;47.520;19.186;2023-01-29T06:58:31;100775.16;;;0.82;84.86
49102;BME280;34913;47.520;19.186;2023-01-29T07:01:05;100779.53;;;0.82;85.21
49102;BME280;34913;47.520;19.186;2023-01-29T07:03:31;100784.59;;;0.88;84.58
49102;BME280;34913;47.520;19.186;2023-01-29T07:05:56;100785.44;;;0.89;84.63
49102;BME280;34913;47.520;19.186;2023-01-29T07:08:22;100776.53;;;0.94;84.34
49102;BME280;34913;47.520;19.186;2023-01-29T07:10:48;100779.16;;;0.94;84.49
49102;BME280;34913;47.520;19.186;2023-01-29T07:13:14;100777.44;;;0.93;84.78
49102;BME280;34913;47.520;19.186;2023-01-29T07:15:40;100779.06;;;0.97;84.77
49102;BME280;34913;47.520;19.186;2023-01-29T07:18:05;100779.81;;;1.01;84.22
49102;BME280;34913;47.520;19.186;2023-01-29T07:20:40;100774.41;;;1.07;83.95
49102;BME280;34913;47.520;19.186;2023-01-29T07:23:07;100770.81;;;1.11;84.02
49102;BME280;34913;47.520;19.186;2023-01-29T07:25:33;100760.63;;;1.02;84.10
49102;BME280;34913;47.520;19.186;2023-01-29T07:28:00;100752.63;;;1.06;84.14
49102;BME280;34913;47.520;19.186;2023-01-29T07:30:26;100767.59;;;1.01;84.63
49102;BME280;34913;47.520;19.186;2023-01-29T07:32:51;100768.63;;;0.97;84.56
49102;BME280;34913;47.520;19.186;2023-01-29T07:35:17;100758.16;;;0.97;84.77
49102;BME280;34913;47.520;19.186;2023-01-29T07:37:42;100753.13;;;0.91;85.03
49102;BME280;34913;47.520;19.186;2023-01-29T07:40:08;100763.34;;;0.99;84.78
49102;BME280;34913;47.520;19.186;2023-01-29T07:42:38;100753.50;;;1.07;84.52
49102;BME280;34913;47.520;19.186;2023-01-29T07:45:09;100749.69;;;1.17;83.89
49102;BME280;34913;47.520;19.186;2023-01-29T07:47:35;100748.75;;;1.20;82.82
49102;BME280;34913;47.520;19.186;2023-01-29T07:50:00;100742.44;;;1.25;82.40
49102;BME280;34913;47.520;19.186;2023-01-29T07:52:28;100744.41;;;1.19;82.35
49102;BME280;34913;47.520;19.186;2023-01-29T07:54:54;100751.91;;;1.01;83.42
49102;BME280;34913;47.520;19.186;2023-01-29T07:57:19;100754.59;;;1.00;84.42
49102;BME280;34913;47.520;19.186;2023-01-29T07:59:44;100755.38;;;1.02;84.30
49102;BME280;34913;47.520;19.186;2023-01-29T08:02:11;100756.06;;;1.08;83.55
49102;BME280;34913;47.520;19.186;2023-01-29T08:04:36;100745.78;;;1.30;81.91
49102;BME280;34913;47.520;19.186;2023-01-29T08:07:02;100748.44;;;1.29;81.75
49102;BME280;34913;47.520;19.186;2023-01-29T08:09:29;100750.09;;;1.31;81.52
49102;BME280;34913;47.520;19.186;2023-01-29T08:11:55;100754.34;;;1.34;81.52
49102;BME280;34913;47.520;19.186;2023-01-29T08:14:21;100755.50;;;1.25;81.90
49102;BME280;34913;47.520;19.186;2023-01-29T08:16:47;100744.63;;;1.13;82.09
49102;BME280;34913;47.520;19.186;2023-01-29T08:19:12;100755.25;;;1.06;82.50
49102;BME280;34913;47.520;19.186;2023-01-29T08:21:37;100752.78;;;1.02;83.27
49102;BME280;34913;47.520;19.186;2023-01-29T08:24:03;100762.25;;;1.06;83.27
49102;BME280;34913;47.520;19.186;2023-01-29T08:26:29;100768.06;;;0.88;83.17
49102;BME280;34913;47.520;19.186;2023-01-29T08:28:54;100768.75;;;0.93;83.29
49102;BME280;34913;47.520;19.186;2023-01-29T08:31:19;100769.47;;;0.98;83.00
49102;BME280;34913;47.520;19.186;2023-01-29T08:33:45;100769.00;;;1.13;81.79
49102;BME280;34913;47.520;19.186;2023-01-29T08:36:11;100764.75;;;1.09;81.83
49102;BME280;34913;47.520;19.186;2023-01-29T08:38:37;100769.97;;;1.09;81.35
49102;BME280;34913;47.520;19.186;2023-01-29T08:41:02;100785.03;;;1.01;82.17
49102;BME280;34913;47.520;19.186;2023-01-29T08:43:28;100777.38;;;0.96;82.23
49102;BME280;34913;47.520;19.186;2023-01-29T08:45:53;100782.25;;;1.07;81.75
49102;BME280;34913;47.520;19.186;2023-01-29T08:48:19;100795.13;;;1.13;81.45
49102;BME280;34913;47.520;19.186;2023-01-29T08:50:44;100794.00;;;1.22;81.04
49102;BME280;34913;47.520;19.186;2023-01-29T08:53:10;100798.22;;;1.26;81.54
49102;BME280;34913;47.520;19.186;2023-01-29T08:55:36;100802.41;;;1.31;80.13
49102;BME280;34913;47.520;19.186;2023-01-29T08:58:03;100806.47;;;1.40;79.22
49102;BME280;34913;47.520;19.186;2023-01-29T09:00:30;100807.50;;;1.36;79.44
49102;BME280;34913;47.520;19.186;2023-01-29T09:02:56;100808.53;;;1.30;79.55
49102;BME280;34913;47.520;19.186;2023-01-29T09:05:24;100810.66;;;1.19;79.75
49102;BME280;34913;47.520;19.186;2023-01-29T09:07:49;100812.63;;;1.11;79.80
49102;BME280;34913;47.520;19.186;2023-01-29T09:10:15;100816.09;;;1.11;79.83
49102;BME280;34913;47.520;19.186;2023-01-29T09:12:41;100818.50;;;1.18;79.52
49102;BME280;34913;47.520;19.186;2023-01-29T09:15:06;100807.63;;;1.31;79.33
49102;BME280;34913;47.520;19.186;2023-01-29T09:17:32;100814.81;;;1.25;78.52
49102;BME280;34913;47.520;19.186;2023-01-29T09:19:58;100812.06;;;1.29;78.41
49102;BME280;34913;47.520;19.186;2023-01-29T09:22:23;100810.25;;;1.31;79.04
49102;BME280;34913;47.520;19.186;2023-01-29T09:24:48;100811.88;;;1.35;78.84
49102;BME280;34913;47.520;19.186;2023-01-29T09:27:14;100810.66;;;1.18;79.33
49102;BME280;34913;47.520;19.186;2023-01-29T09:29:39;100815.78;;;1.22;78.86
49102;BME280;34913;47.520;19.186;2023-01-29T09:32:05;100799.03;;;1.28;78.21
49102;BME280;34913;47.520;19.186;2023-01-29T09:34:31;100799.72;;;1.33;77.81
49102;BME280;34913;47.520;19.186;2023-01-29T09:36:56;100818.38;;;1.50;76.62
49102;BME280;34913;47.520;19.186;2023-01-29T09:39:21;100811.28;;;1.54;76.76
49102;BME280;34913;47.520;19.186;2023-01-29T09:42:26;100812.31;;;1.48;76.48
49102;BME280;34913;47.520;19.186;2023-01-29T09:45:03;100810.34;;;1.28;77.26
49102;BME280;34913;47.520;19.186;2023-01-29T09:47:32;100822.09;;;1.43;76.13
49102;BME280;34913;47.520;19.186;2023-01-29T09:50:00;100827.28;;;1.45;76.67
49102;BME280;34913;47.520;19.186;2023-01-29T09:52:29;100828.38;;;1.37;76.93
49102;BME280;34913;47.520;19.186;2023-01-29T09:55:02;100821.66;;;1.29;76.58
49102;BME280;34913;47.520;19.186;2023-01-29T09:57:45;100811.94;;;1.32;76.36
49102;BME280;34913;47.520;19.186;2023-01-29T10:00:15;100818.81;;;1.36;76.17
49102;BME280;34913;47.520;19.186;2023-01-29T10:03:12;100824.50;;;1.49;75.20
49102;BME280;34913;47.520;19.186;2023-01-29T10:05:45;100829.97;;;1.42;75.39
49102;BME280;34913;47.520;19.186;2023-01-29T10:08:19;100826.72;;;1.33;75.84
49102;BME280;34913;47.520;19.186;2023-01-29T10:16:45;100831.16;;;1.31;76.60
49102;BME280;34913;47.520;19.186;2023-01-29T10:24:57;100821.78;;;1.52;74.04
49102;BME280;34913;47.520;19.186;2023-01-29T10:27:31;100815.75;;;1.50;74.59
49102;BME280;34913;47.520;19.186;2023-01-29T10:29:56;100820.34;;;1.44;74.75
49102;BME280;34913;47.520;19.186;2023-01-29T10:32:24;100814.81;;;1.25;74.37
49102;BME280;34913;47.520;19.186;2023-01-29T10:37:57;100826.38;;;1.46;73.98
49102;BME280;34913;47.520;19.186;2023-01-29T10:40:33;100817.00;;;1.38;74.20
49102;BME280;34913;47.520;19.186;2023-01-29T10:45:42;100816.00;;;1.43;73.85
49102;BME280;34913;47.520;19.186;2023-01-29T10:50:41;100807.56;;;1.34;72.73
49102;BME280;34913;47.520;19.186;2023-01-29T10:53:40;100804.88;;;1.36;71.21
49102;BME280;34913;47.520;19.186;2023-01-29T10:59:07;100798.56;;;1.42;71.99
49102;BME280;34913;47.520;19.186;2023-01-29T11:01:38;100793.25;;;1.45;71.30
49102;BME280;34913;47.520;19.186;2023-01-29T11:04:05;100790.66;;;1.45;72.68
49102;BME280;34913;47.520;19.186;2023-01-29T11:06:31;100777.81;;;1.37;72.70
49102;BME280;34913;47.520;19.186;2023-01-29T11:14:55;100779.69;;;1.60;71.18
49102;BME280;34913;47.520;19.186;2023-01-29T11:17:23;100780.47;;;1.62;71.05
49102;BME280;34913;47.520;19.186;2023-01-29T11:19:51;100770.75;;;1.65;70.00
49102;BME280;34913;47.520;19.186;2023-01-29T11:22:21;100761.16;;;1.66;70.42
49102;BME280;34913;47.520;19.186;2023-01-29T11:25:15;100755.16;;;1.62;70.02
49102;BME280;34913;47.520;19.186;2023-01-29T11:27:46;100762.81;;;1.68;69.69
49102;BME280;34913;47.520;19.186;2023-01-29T11:30:34;100758.38;;;1.71;69.67
49102;BME280;34913;47.520;19.186;2023-01-29T11:35:32;100744.91;;;1.56;68.91
49102;BME280;34913;47.520;19.186;2023-01-29T11:38:28;100734.88;;;1.44;70.50
49102;BME280;34913;47.520;19.186;2023-01-29T11:41:13;100741.16;;;1.38;69.67
49102;BME280;34913;47.520;19.186;2023-01-29T11:43:40;100740.63;;;1.54;69.71
49102;BME280;34913;47.520;19.186;2023-01-29T11:46:12;100728.53;;;1.51;67.95
49102;BME280;34913;47.520;19.186;2023-01-29T11:51:11;100718.50;;;1.37;69.57
49102;BME280;34913;47.520;19.186;2023-01-29T11:53:49;100705.78;;;1.53;67.80
49102;BME280;34913;47.520;19.186;2023-01-29T11:58:44;100706.69;;;1.52;67.78
49102;BME280;34913;47.520;19.186;2023-01-29T12:01:11;100710.66;;;1.37;68.00
49102;BME280;34913;47.520;19.186;2023-01-29T12:03:43;100704.31;;;1.45;68.37
49102;BME280;34913;47.520;19.186;2023-01-29T12:08:53;100712.81;;;1.51;66.89
49102;BME280;34913;47.520;19.186;2023-01-29T12:11:26;100709.31;;;1.52;66.29
49102;BME280;34913;47.520;19.186;2023-01-29T12:14:03;100713.50;;;1.56;66.97
49102;BME280;34913;47.520;19.186;2023-01-29T12:16:37;100703.41;;;1.46;67.43
49102;BME280;34913;47.520;19.186;2023-01-29T12:19:12;100709.16;;;1.30;66.88
49102;BME280;34913;47.520;19.186;2023-01-29T12:26:52;100701.13;;;1.36;65.68
49102;BME280;34913;47.520;19.186;2023-01-29T12:32:06;100696.16;;;1.54;66.10
49102;BME280;34913;47.520;19.186;2023-01-29T12:34:49;100700.59;;;1.52;64.24
49102;BME280;34913;47.520;19.186;2023-01-29T12:40:16;100706.69;;;1.52;64.64
49102;BME280;34913;47.520;19.186;2023-01-29T12:42:48;100703.47;;;1.44;64.70
49102;BME280;34913;47.520;19.186;2023-01-29T12:45:17;100707.47;;;1.54;64.01
49102;BME280;34913;47.520;19.186;2023-01-29T12:47:51;100702.38;;;1.51;64.46
49102;BME280;34913;47.520;19.186;2023-01-29T12:50:21;100694.84;;;1.40;64.22
49102;BME280;34913;47.520;19.186;2023-01-29T12:52:58;100701.44;;;1.27;64.41
49102;BME280;34913;47.520;19.186;2023-01-29T12:55:40;100688.03;;;1.36;63.85
49102;BME280;34913;47.520;19.186;2023-01-29T12:58:16;100692.09;;;1.45;62.84
49102;BME280;34913;47.520;19.186;2023-01-29T13:00:47;100688.03;;;1.36;65.03
49102;BME280;34913;47.520;19.186;2023-01-29T13:03:24;100688.38;;;1.26;64.40
49102;BME280;34913;47.520;19.186;2023-01-29T13:05:55;100676.38;;;1.20;65.89
49102;BME280;34913;47.520;19.186;2023-01-29T13:08:53;100677.06;;;1.25;64.87
49102;BME280;34913;47.520;19.186;2023-01-29T13:11:27;100672.16;;;1.16;65.84
49102;BME280;34913;47.520;19.186;2023-01-29T13:14:03;100651.81;;;1.24;65.41
49102;BME280;34913;47.520;19.186;2023-01-29T13:16:39;100655.88;;;1.34;64.54
49102;BME280;34913;47.520;19.186;2023-01-29T13:19:30;100648.47;;;1.46;65.03
49102;BME280;34913;47.520;19.186;2023-01-29T13:22:00;100648.03;;;1.58;63.30
49102;BME280;34913;47.520;19.186;2023-01-29T13:24:41;100640.94;;;1.61;63.47
49102;BME280;34913;47.520;19.186;2023-01-29T13:27:19;100639.97;;;1.64;61.41
49102;BME280;34913;47.520;19.186;2023-01-29T13:29:46;100637.50;;;1.61;61.91
49102;BME280;34913;47.520;19.186;2023-01-29T13:32:19;100626.50;;;1.51;62.25
49102;BME280;34913;47.520;19.186;2023-01-29T13:34:47;100628.13;;;1.54;62.33
49102;BME280;34913;47.520;19.186;2023-01-29T13:37:45;100639.97;;;1.64;61.84
49102;BME280;34913;47.520;19.186;2023-01-29T13:40:27;100639.00;;;1.43;63.28
49102;BME280;34913;47.520;19.186;2023-01-29T13:42:55;100645.06;;;1.44;63.66
49102;BME280;34913;47.520;19.186;2023-01-29T13:45:44;100645.81;;;1.47;62.88
49102;BME280;34913;47.520;19.186;2023-01-29T13:50:49;100651.75;;;1.26;62.80
49102;BME280;34913;47.520;19.186;2023-01-29T13:53:24;100665.47;;;1.07;62.63
49102;BME280;34913;47.520;19.186;2023-01-29T13:55:51;100659.06;;;1.16;63.39
49102;BME280;34913;47.520;19.186;2023-01-29T14:01:07;100636.91;;;1.28;62.56
49102;BME280;34913;47.520;19.186;2023-01-29T14:03:42;100621.34;;;1.23;64.08
49102;BME280;34913;47.520;19.186;2023-01-29T14:06:07;100635.13;;;1.28;62.31
49102;BME280;34913;47.520;19.186;2023-01-29T14:08:42;100646.44;;;1.29;62.40
49102;BME280;34913;47.520;19.186;2023-01-29T14:13:42;100653.16;;;1.11;63.33
49102;BME280;34913;47.520;19.186;2023-01-29T14:18:45;100658.66;;;1.03;64.73
49102;BME280;34913;47.520;19.186;2023-01-29T14:21:33;100659.31;;;1.08;64.02
49102;BME280;34913;47.520;19.186;2023-01-29T14:24:20;100655.44;;;0.94;63.90
49102;BME280;34913;47.520;19.186;2023-01-29T14:26:47;100656.78;;;0.79;64.72
49102;BME280;34913;47.520;19.186;2023-01-29T14:29:22;100662.78;;;0.82;65.04
49102;BME280;34913;47.520;19.186;2023-01-29T14:34:32;100658.00;;;0.69;65.69
49102;BME280;34913;47.520;19.186;2023-01-29T14:39:54;100661.75;;;0.60;65.50
49102;BME280;34913;47.520;19.186;2023-01-29T14:42:25;100659.19;;;0.59;65.41
49102;BME280;34913;47.520;19.186;2023-01-29T14:45:52;100656.47;;;0.62;66.59
49102;BME280;34913;47.520;19.186;2023-01-29T14:48:00;100651.53;;;0.52;65.73
49102;BME280;34913;47.520;19.186;2023-01-29T14:53:33;100654.19;;;0.79;64.58
49102;BME280;34913;47.520;19.186;2023-01-29T14:58:50;100661.41;;;0.71;64.37
49102;BME280;34913;47.520;19.186;2023-01-29T15:01:21;100668.22;;;0.76;64.57
49102;BME280;34913;47.520;19.186;2023-01-29T15:06:32;100664.63;;;0.79;63.74
49102;BME280;34913;47.520;19.186;2023-01-29T15:09:29;100667.16;;;0.82;63.31
49102;BME280;34913;47.520;19.186;2023-01-29T15:11:59;100660.56;;;0.70;63.02
49102;BME280;34913;47.520;19.186;2023-01-29T15:14:45;100658.97;;;0.66;63.46